OMAD/AZI METAR and TAF weather

Enter ICAO airport designator
Station Type Date Time Source
OMAD METAR 2019/02/21 00:00 UTC NOAA

OMAD 210000Z 29006KT 9999 SCT040 18/09 Q1019 NOSIG


Station Type Date Time Source
OMAD Decoded METAR 2019/02/21 00:00 UTC NOAA

Abu Dhabi Bateen Airport, United Arab Emirates (OMAD) 24-26N 054-28E 3M
Feb 20, 2019 - 07:00 PM EST / 2019.02.21 0000 UTC
Wind: from the WNW (290 degrees) at 7 MPH (6 KT):0
Visibility: greater than 7 mile(s):0
Sky conditions: partly cloudy
Temperature: 64 F (18 C)
Dew Point: 48 F (9 C)
Relative Humidity: 55%
Pressure (altimeter): 30.09 in. Hg (1019 hPa)
ob: OMAD 210000Z 29006KT 9999 SCT040 18/09 Q1019 NOSIG
cycle: 0

Station Type Date Time Source
OMAD TAF 2019/02/20 18:00 UTC NOAA

TAF OMAD 201700Z 2018/2200 29008KT 8000 FEW035
BECMG 2100/2102 22004KT
BECMG 2105/2107 30008KT


Example: see airport list